createdAt,value
2022-12-25T00:00:42.295Z,100471.78
2022-12-25T00:03:08.924Z,100466.91
2022-12-25T00:05:38.107Z,100462.63
2022-12-25T00:08:04.779Z,100467.09
2022-12-25T00:10:31.262Z,100474.59
2022-12-25T00:12:59.130Z,100466.28
2022-12-25T00:15:25.654Z,100466.59
2022-12-25T00:17:52.144Z,100473.94
2022-12-25T00:20:18.763Z,100468.28
2022-12-25T00:22:45.327Z,100469.25
2022-12-25T00:25:11.903Z,100466.78
2022-12-25T00:27:38.399Z,100460.06
2022-12-25T00:30:07.671Z,100467.41
2022-12-25T00:32:35.298Z,100462.06
2022-12-25T00:35:01.932Z,100464.22
2022-12-25T00:37:28.418Z,100457.72
2022-12-25T00:39:54.890Z,100459.56
2022-12-25T00:42:21.587Z,100461.28
2022-12-25T00:44:48.954Z,100463.81
2022-12-25T00:47:17.625Z,100462.28
2022-12-25T00:49:44.495Z,100467.31
2022-12-25T00:52:11.055Z,100477.16
2022-12-25T00:54:37.806Z,100473.81
2022-12-25T00:57:04.431Z,100479.34
2022-12-25T00:59:31.681Z,100465.47
2022-12-25T01:01:58.604Z,100478.66
2022-12-25T01:04:26.461Z,100481.66
2022-12-25T01:06:52.968Z,100474.81
2022-12-25T01:09:22.175Z,100476.69
2022-12-25T01:11:48.687Z,100471.47
2022-12-25T01:14:15.242Z,100465.63
2022-12-25T01:16:41.943Z,100476.66
2022-12-25T01:19:08.945Z,100487.03
2022-12-25T01:21:36.822Z,100490.00
2022-12-25T01:24:03.662Z,100486.50
2022-12-25T01:26:30.172Z,100487.66
2022-12-25T01:28:56.717Z,100480.28
2022-12-25T01:31:24.805Z,100480.56
2022-12-25T01:33:51.739Z,100479.91
2022-12-25T01:36:19.850Z,100476.44
2022-12-25T01:38:48.664Z,100470.38
2022-12-25T01:41:17.933Z,100463.88
2022-12-25T01:43:58.908Z,100473.59
2022-12-25T01:46:25.623Z,100476.44
2022-12-25T01:48:53.640Z,100468.09
2022-12-25T01:51:25.631Z,100476.94
2022-12-25T01:53:56.037Z,100471.91
2022-12-25T01:56:22.772Z,100476.88
2022-12-25T01:58:49.409Z,100486.25
2022-12-25T02:01:16.113Z,100480.56
2022-12-25T02:03:42.805Z,100488.97
2022-12-25T02:06:09.480Z,100482.72
2022-12-25T02:08:36.277Z,100490.97
2022-12-25T02:11:04.415Z,100483.25
2022-12-25T02:13:31.117Z,100488.09
2022-12-25T02:16:04.441Z,100485.28
2022-12-25T02:18:42.017Z,100487.94
2022-12-25T02:21:29.938Z,100484.25
2022-12-25T02:24:12.727Z,100478.59
2022-12-25T02:26:59.614Z,100467.41
2022-12-25T02:29:33.158Z,100475.28
2022-12-25T02:32:04.493Z,100478.16
2022-12-25T02:34:36.046Z,100470.25
2022-12-25T02:37:08.699Z,100461.25
2022-12-25T02:39:44.289Z,100485.34
2022-12-25T02:42:18.159Z,100481.53
2022-12-25T02:44:49.846Z,100493.22
2022-12-25T02:47:17.767Z,100496.25
2022-12-25T02:49:45.476Z,100483.84
2022-12-25T02:52:15.400Z,100481.50
2022-12-25T02:54:50.331Z,100488.50
2022-12-25T02:57:20.558Z,100488.00
2022-12-25T02:59:50.985Z,100487.03
2022-12-25T03:02:18.512Z,100476.31
2022-12-25T03:04:46.189Z,100477.34
2022-12-25T03:07:16.278Z,100463.28
2022-12-25T03:09:48.772Z,100472.50
2022-12-25T03:12:22.280Z,100468.63
2022-12-25T03:14:50.258Z,100460.59
2022-12-25T03:17:16.785Z,100467.63
2022-12-25T03:19:43.361Z,100470.78
2022-12-25T03:22:13.189Z,100471.81
2022-12-25T03:24:40.042Z,100470.13
2022-12-25T03:27:06.493Z,100466.31
2022-12-25T03:29:34.089Z,100466.13
2022-12-25T03:32:11.362Z,100457.59
2022-12-25T03:34:42.794Z,100450.75
2022-12-25T03:37:21.316Z,100435.53
2022-12-25T03:40:03.638Z,100436.84
2022-12-25T03:42:37.615Z,100440.38
2022-12-25T03:45:09.763Z,100430.66
2022-12-25T03:47:39.583Z,100425.47
2022-12-25T03:50:12.296Z,100418.28
2022-12-25T03:52:40.057Z,100413.06
2022-12-25T03:55:09.934Z,100407.09
2022-12-25T03:57:36.391Z,100400.19
2022-12-25T04:00:03.486Z,100394.19
2022-12-25T04:02:37.726Z,100396.03
2022-12-25T04:05:04.954Z,100415.13
2022-12-25T04:07:31.408Z,100412.59
2022-12-25T04:09:57.936Z,100414.28
2022-12-25T04:12:24.395Z,100417.28
2022-12-25T04:14:51.071Z,100412.13
2022-12-25T04:17:17.513Z,100419.31
2022-12-25T04:19:45.326Z,100419.13
2022-12-25T04:22:11.781Z,100433.88
2022-12-25T04:24:38.227Z,100431.66
2022-12-25T04:27:04.719Z,100424.34
2022-12-25T04:29:31.172Z,100434.50
2022-12-25T04:31:57.627Z,100418.28
2022-12-25T04:34:24.048Z,100416.06
2022-12-25T04:36:51.853Z,100426.75
2022-12-25T04:39:18.374Z,100427.22
2022-12-25T04:41:44.845Z,100413.41
2022-12-25T04:44:11.327Z,100414.22
2022-12-25T04:46:37.899Z,100419.94
2022-12-25T04:49:04.425Z,100415.75
2022-12-25T04:51:30.863Z,100409.22
2022-12-25T04:53:58.674Z,100413.56
2022-12-25T04:56:25.156Z,100403.72
2022-12-25T04:58:51.633Z,100411.78
2022-12-25T05:01:18.190Z,100408.59
2022-12-25T05:03:44.774Z,100409.75
2022-12-25T05:06:11.317Z,100407.56
2022-12-25T05:08:37.853Z,100403.91
2022-12-25T05:11:10.282Z,100403.88
2022-12-25T05:13:37.441Z,100400.72
2022-12-25T05:16:07.665Z,100385.19
2022-12-25T05:18:34.534Z,100385.00
2022-12-25T05:21:01.087Z,100381.31
2022-12-25T05:23:27.633Z,100374.66
2022-12-25T05:25:54.081Z,100367.28
2022-12-25T05:28:21.875Z,100373.81
2022-12-25T05:30:48.489Z,100368.94
2022-12-25T05:33:15.258Z,100365.28
2022-12-25T05:35:41.765Z,100367.59
2022-12-25T05:38:08.507Z,100369.63
2022-12-25T05:40:38.268Z,100364.59
2022-12-25T05:43:04.706Z,100367.44
2022-12-25T05:45:32.586Z,100380.81
2022-12-25T05:47:59.009Z,100363.41
2022-12-25T05:50:25.459Z,100367.44
2022-12-25T05:53:08.100Z,100362.59
2022-12-25T05:55:36.086Z,100353.69
2022-12-25T05:58:02.763Z,100352.53
2022-12-25T06:00:29.336Z,100349.69
2022-12-25T06:02:57.290Z,100343.00
2022-12-25T06:05:24.300Z,100337.78
2022-12-25T06:07:50.823Z,100332.28
2022-12-25T06:10:17.264Z,100323.09
2022-12-25T06:12:43.782Z,100337.34
2022-12-25T06:15:10.608Z,100347.34
2022-12-25T06:17:37.138Z,100346.66
2022-12-25T06:20:41.269Z,100323.47
2022-12-25T06:23:18.995Z,100330.28
2022-12-25T06:25:45.729Z,100324.75
2022-12-25T06:28:17.481Z,100320.06
2022-12-25T06:30:44.138Z,100332.09
2022-12-25T06:33:10.660Z,100310.84
2022-12-25T06:39:32.513Z,100279.88
2022-12-25T06:41:59.242Z,100255.66
2022-12-25T06:44:25.900Z,100268.75
2022-12-25T06:46:53.069Z,100279.75
2022-12-25T06:49:19.682Z,100303.00
2022-12-25T06:51:46.400Z,100279.75
2022-12-25T06:54:16.141Z,100298.31
2022-12-25T06:56:47.333Z,100278.25
2022-12-25T06:59:14.341Z,100293.47
2022-12-25T07:01:46.549Z,100278.25
2022-12-25T07:04:16.728Z,100253.47
2022-12-25T07:06:43.265Z,100251.97
2022-12-25T07:09:09.876Z,100224.56
2022-12-25T07:11:36.791Z,100242.31
2022-12-25T07:14:05.144Z,100243.78
2022-12-25T07:16:31.713Z,100255.53
2022-12-25T07:18:59.277Z,100259.66
2022-12-25T07:21:25.793Z,100255.63
2022-12-25T07:23:52.324Z,100246.16
2022-12-25T07:26:21.129Z,100239.91
2022-12-25T07:28:47.594Z,100238.38
2022-12-25T07:31:17.508Z,100240.91
2022-12-25T07:33:44.977Z,100233.72
2022-12-25T07:36:12.941Z,100240.22
2022-12-25T07:38:40.095Z,100238.44
2022-12-25T07:41:08.268Z,100236.97
2022-12-25T07:43:34.681Z,100228.25
2022-12-25T07:46:01.225Z,100254.06
2022-12-25T07:48:29.236Z,100243.53
2022-12-25T07:50:57.493Z,100244.22
2022-12-25T07:53:23.971Z,100248.75
2022-12-25T07:55:57.102Z,100234.34
2022-12-25T07:58:23.760Z,100230.63
2022-12-25T08:00:50.353Z,100219.75
2022-12-25T08:03:17.173Z,100214.78
2022-12-25T08:05:45.116Z,100226.00
2022-12-25T08:08:11.597Z,100217.97
2022-12-25T08:10:38.155Z,100212.63
2022-12-25T08:13:09.035Z,100205.94
2022-12-25T08:15:39.736Z,100212.91
2022-12-25T08:18:06.227Z,100215.78
2022-12-25T08:20:33.598Z,100207.31
2022-12-25T08:23:01.400Z,100231.69
2022-12-25T08:25:27.868Z,100221.19
2022-12-25T08:27:54.306Z,100203.50
2022-12-25T08:30:22.758Z,100170.75
2022-12-25T08:32:49.295Z,100179.00
2022-12-25T08:35:15.938Z,100199.06
2022-12-25T08:37:42.417Z,100205.84
2022-12-25T08:40:11.382Z,100226.50
2022-12-25T08:42:37.854Z,100220.84
2022-12-25T08:45:04.975Z,100216.94
2022-12-25T08:47:31.470Z,100216.09
2022-12-25T08:49:57.881Z,100211.94
2022-12-25T08:52:24.340Z,100220.63
2022-12-25T08:54:50.804Z,100200.72
2022-12-25T08:57:18.620Z,100195.22
2022-12-25T08:59:45.066Z,100190.91
2022-12-25T09:02:12.676Z,100195.81
2022-12-25T09:04:41.533Z,100186.28
2022-12-25T09:07:11.143Z,100191.31
2022-12-25T09:09:37.600Z,100200.91
2022-12-25T09:12:08.411Z,100217.00
2022-12-25T09:15:32.772Z,100199.13
2022-12-25T09:18:01.123Z,100202.84
2022-12-25T09:20:32.310Z,100175.13
2022-12-25T09:22:58.933Z,100207.13
2022-12-25T09:25:25.697Z,100217.22
2022-12-25T09:28:07.598Z,100229.03
2022-12-25T09:30:37.902Z,100228.53
2022-12-25T09:33:04.746Z,100215.44
2022-12-25T09:35:31.285Z,100235.59
2022-12-25T09:37:57.831Z,100229.97
2022-12-25T09:40:28.279Z,100265.53
2022-12-25T09:42:56.280Z,100264.00
2022-12-25T09:45:26.889Z,100265.88
2022-12-25T09:47:56.706Z,100272.91
2022-12-25T09:50:33.979Z,100252.25
2022-12-25T09:53:05.628Z,100243.00
2022-12-25T09:55:35.904Z,100239.03
2022-12-25T09:58:10.580Z,100228.50
2022-12-25T10:00:41.934Z,100244.19
2022-12-25T10:03:26.493Z,100233.13
2022-12-25T10:06:07.823Z,100227.75
2022-12-25T10:08:54.768Z,100229.97
2022-12-25T10:11:32.248Z,100232.94
2022-12-25T10:14:10.927Z,100232.09
2022-12-25T10:16:46.714Z,100221.69
2022-12-25T10:19:31.223Z,100214.84
2022-12-25T10:22:00.769Z,100210.53
2022-12-25T10:24:33.743Z,100201.75
2022-12-25T10:27:03.041Z,100194.38
2022-12-25T10:29:31.980Z,100181.22
2022-12-25T10:31:58.824Z,100174.72
2022-12-25T10:34:27.070Z,100163.53
2022-12-25T10:36:53.569Z,100165.31
2022-12-25T10:39:21.747Z,100168.00
2022-12-25T10:42:01.863Z,100174.53
2022-12-25T10:44:28.333Z,100171.88
2022-12-25T10:46:56.640Z,100172.47
2022-12-25T10:49:25.144Z,100182.47
2022-12-25T10:51:52.927Z,100181.44
2022-12-25T10:54:22.562Z,100184.53
2022-12-25T10:56:53.661Z,100177.56
2022-12-25T10:59:20.454Z,100163.16
2022-12-25T11:01:51.008Z,100162.81
2022-12-25T11:04:22.264Z,100140.94
2022-12-25T11:07:05.003Z,100119.53
2022-12-25T11:09:31.710Z,100100.91
2022-12-25T11:11:59.308Z,100088.88
2022-12-25T11:14:26.222Z,100074.97
2022-12-25T11:16:52.652Z,100062.06
2022-12-25T11:19:30.499Z,100058.47
2022-12-25T11:21:58.438Z,100074.31
2022-12-25T11:24:28.422Z,100064.09
2022-12-25T11:26:56.786Z,100054.72
2022-12-25T11:29:30.477Z,100056.38
2022-12-25T11:31:59.712Z,100042.16
2022-12-25T11:34:31.125Z,100035.78
2022-12-25T11:36:59.668Z,100031.53
2022-12-25T11:39:31.493Z,100031.13
2022-12-25T11:42:02.000Z,100024.50
2022-12-25T11:44:38.077Z,100029.69
2022-12-25T11:47:13.119Z,100023.34
2022-12-25T11:49:49.672Z,100018.91
2022-12-25T11:52:18.483Z,100023.72
2022-12-25T11:54:51.895Z,100015.47
2022-12-25T11:57:18.579Z,99997.38
2022-12-25T11:59:52.778Z,100001.25
2022-12-25T12:02:28.673Z,99994.94
2022-12-25T12:05:06.810Z,99987.81
2022-12-25T12:07:34.684Z,99991.19
2022-12-25T12:10:14.283Z,100008.09
2022-12-25T12:12:50.791Z,99993.81
2022-12-25T12:15:26.203Z,99998.38
2022-12-25T12:17:52.625Z,99996.22
2022-12-25T12:20:29.430Z,99987.91
2022-12-25T12:22:56.604Z,99994.75
2022-12-25T12:25:25.166Z,99990.06
2022-12-25T12:27:59.819Z,99983.72
2022-12-25T12:30:32.172Z,99970.06
2022-12-25T12:33:00.564Z,99975.25
2022-12-25T12:35:31.072Z,99970.53
2022-12-25T12:38:00.512Z,99971.97
2022-12-25T12:40:32.462Z,99969.69
2022-12-25T12:43:00.025Z,99954.19
2022-12-25T12:45:30.559Z,99961.59
2022-12-25T12:47:58.029Z,99954.75
2022-12-25T12:50:36.905Z,99955.69
2022-12-25T12:53:21.978Z,99955.78
2022-12-25T12:55:50.615Z,99951.16
2022-12-25T12:58:27.361Z,99952.69
2022-12-25T13:01:11.747Z,99934.31
2022-12-25T13:04:00.456Z,99941.00
2022-12-25T13:06:33.344Z,99937.81
2022-12-25T13:09:09.954Z,99933.81
2022-12-25T13:11:42.927Z,99921.81
2022-12-25T13:14:15.208Z,99923.00
2022-12-25T13:16:45.057Z,99913.81
2022-12-25T13:19:14.609Z,99906.91
2022-12-25T13:21:50.754Z,99919.28
2022-12-25T13:24:20.263Z,99925.47
2022-12-25T13:26:48.247Z,99920.09
2022-12-25T13:29:29.059Z,99909.88
2022-12-25T13:31:56.292Z,99909.41
2022-12-25T13:34:28.488Z,99912.41
2022-12-25T13:36:56.064Z,99908.44
2022-12-25T13:39:23.234Z,99915.47
2022-12-25T13:41:53.720Z,99911.81
2022-12-25T13:44:22.846Z,99924.63
2022-12-25T13:46:50.719Z,99928.81
2022-12-25T13:49:20.312Z,99936.72
2022-12-25T13:51:47.311Z,99922.31
2022-12-25T13:54:16.025Z,99901.78
2022-12-25T13:56:49.032Z,99899.63
2022-12-25T13:59:19.617Z,99910.28
2022-12-25T14:01:47.489Z,99914.44
2022-12-25T14:04:15.730Z,99921.31
2022-12-25T14:06:42.242Z,99925.38
2022-12-25T14:09:09.764Z,99936.97
2022-12-25T14:11:36.535Z,99935.94
2022-12-25T14:14:07.715Z,99923.44
2022-12-25T14:16:35.817Z,99934.69
2022-12-25T14:19:02.882Z,99932.63
2022-12-25T14:21:32.939Z,99926.53
2022-12-25T14:23:59.852Z,99928.69
2022-12-25T14:26:29.155Z,99932.78
2022-12-25T14:29:02.261Z,99921.41
2022-12-25T14:31:29.256Z,99916.44
2022-12-25T14:33:58.671Z,99914.19
2022-12-25T14:36:26.007Z,99917.19
2022-12-25T14:38:57.733Z,99930.00
2022-12-25T14:41:28.158Z,99935.69
2022-12-25T14:43:55.475Z,99938.13
2022-12-25T14:46:23.621Z,99937.53
2022-12-25T14:49:00.194Z,99931.34
2022-12-25T14:51:28.869Z,99924.72
2022-12-25T14:53:57.602Z,99898.94
2022-12-25T14:56:26.196Z,99890.88
2022-12-25T14:58:54.649Z,99911.88
2022-12-25T15:01:27.047Z,99914.22
2022-12-25T15:04:05.556Z,99913.69
2022-12-25T15:06:32.457Z,99907.50
2022-12-25T15:09:00.738Z,99902.88
2022-12-25T15:11:28.122Z,99900.97
2022-12-25T15:13:54.608Z,99895.72
2022-12-25T15:16:22.974Z,99890.13
2022-12-25T15:18:50.577Z,99891.03
2022-12-25T15:21:25.508Z,99878.72
2022-12-25T15:23:52.342Z,99886.31
2022-12-25T15:26:18.793Z,99888.34
2022-12-25T15:28:45.307Z,99892.28
2022-12-25T15:31:19.904Z,99889.66
2022-12-25T15:33:46.420Z,99885.66
2022-12-25T15:36:12.864Z,99878.88
2022-12-25T15:38:40.656Z,99887.81
2022-12-25T15:41:12.753Z,99884.09
2022-12-25T15:43:40.790Z,99888.97
2022-12-25T15:46:09.184Z,99892.69
2022-12-25T15:48:35.644Z,99883.03
2022-12-25T15:51:02.093Z,99875.19
2022-12-25T15:53:28.517Z,99874.78
2022-12-25T15:55:56.659Z,99869.81
2022-12-25T15:58:23.116Z,99874.34
2022-12-25T16:00:50.467Z,99884.63
2022-12-25T16:03:16.913Z,99875.44
2022-12-25T16:05:43.516Z,99873.78
2022-12-25T16:08:09.977Z,99864.84
2022-12-25T16:10:38.892Z,99858.13
2022-12-25T16:13:07.008Z,99860.91
2022-12-25T16:15:33.562Z,99864.91
2022-12-25T16:18:00.011Z,99861.09
2022-12-25T16:20:26.509Z,99860.59
2022-12-25T16:22:53.047Z,99857.03
2022-12-25T16:25:20.307Z,99869.84
2022-12-25T16:27:47.267Z,99860.91
2022-12-25T16:30:17.946Z,99866.53
2022-12-25T16:32:45.161Z,99858.34
2022-12-25T16:35:12.051Z,99863.50
2022-12-25T16:37:39.022Z,99867.38
2022-12-25T16:40:06.853Z,99869.69
2022-12-25T16:42:33.530Z,99872.88
2022-12-25T16:45:00.057Z,99881.09
2022-12-25T16:47:27.939Z,99880.59
2022-12-25T16:49:54.365Z,99871.38
2022-12-25T16:52:20.823Z,99875.56
2022-12-25T16:54:47.277Z,99872.41
2022-12-25T16:57:13.966Z,99878.19
2022-12-25T16:59:40.414Z,99870.13
2022-12-25T17:02:07.241Z,99875.38
2022-12-25T17:04:35.343Z,99885.03
2022-12-25T17:07:01.836Z,99880.16
2022-12-25T17:09:28.466Z,99869.44
2022-12-25T17:11:54.908Z,99879.97
2022-12-25T17:14:21.331Z,99880.22
2022-12-25T17:16:47.806Z,99877.81
2022-12-25T17:19:17.980Z,99885.31
2022-12-25T17:21:46.586Z,99882.97
2022-12-25T17:24:13.483Z,99877.81
2022-12-25T17:26:40.257Z,99885.13
2022-12-25T17:29:06.795Z,99877.56
2022-12-25T17:31:33.620Z,99886.81
2022-12-25T17:34:01.192Z,99879.66
2022-12-25T17:36:27.893Z,99874.84
2022-12-25T17:38:55.709Z,99888.47
2022-12-25T17:41:22.107Z,99876.41
2022-12-25T17:43:48.652Z,99880.28
2022-12-25T17:46:16.920Z,99887.47
2022-12-25T17:48:43.741Z,99884.19
2022-12-25T17:51:12.148Z,99887.19
2022-12-25T17:53:40.273Z,99883.16
2022-12-25T17:56:09.582Z,99880.88
2022-12-25T17:58:36.939Z,99878.72
2022-12-25T18:01:06.180Z,99880.41
2022-12-25T18:03:32.943Z,99881.31
2022-12-25T18:06:00.004Z,99886.13
2022-12-25T18:08:26.509Z,99873.59
2022-12-25T18:10:52.969Z,99865.88
2022-12-25T18:13:20.729Z,99869.41
2022-12-25T18:15:47.142Z,99869.22
2022-12-25T18:18:13.612Z,99857.16
2022-12-25T18:20:41.536Z,99854.69
2022-12-25T18:23:08.018Z,99858.44
2022-12-25T18:25:34.528Z,99849.94
2022-12-25T18:28:02.704Z,99862.38
2022-12-25T18:30:30.672Z,99865.63
2022-12-25T18:32:57.112Z,99855.91
2022-12-25T18:35:23.579Z,99862.94
2022-12-25T18:37:50.219Z,99860.25
2022-12-25T18:40:16.903Z,99865.75
2022-12-25T18:42:43.348Z,99880.66
2022-12-25T18:45:12.531Z,99880.88
2022-12-25T18:47:40.369Z,99872.00
2022-12-25T18:50:08.177Z,99873.69
2022-12-25T18:52:50.079Z,99877.56
2022-12-25T18:55:17.907Z,99866.75
2022-12-25T18:57:44.414Z,99871.22
2022-12-25T19:00:11.584Z,99879.44
2022-12-25T19:02:38.147Z,99866.88
2022-12-25T19:05:06.631Z,99864.50
2022-12-25T19:07:33.159Z,99871.78
2022-12-25T19:09:59.700Z,99869.72
2022-12-25T19:12:26.152Z,99868.69
2022-12-25T19:14:52.732Z,99873.25
2022-12-25T19:17:19.377Z,99876.13
2022-12-25T19:19:46.164Z,99889.34
2022-12-25T19:22:13.990Z,99874.44
2022-12-25T19:24:40.491Z,99874.47
2022-12-25T19:27:07.009Z,99884.56
2022-12-25T19:29:33.662Z,99881.94
2022-12-25T19:32:00.429Z,99886.88
2022-12-25T19:34:27.020Z,99890.19
2022-12-25T19:36:53.513Z,99897.66
2022-12-25T19:39:21.384Z,99892.50
2022-12-25T19:41:48.145Z,99901.97
2022-12-25T19:44:14.980Z,99907.97
2022-12-25T19:46:41.656Z,99909.41
2022-12-25T19:49:11.876Z,99913.25
2022-12-25T19:51:40.957Z,99908.97
2022-12-25T19:54:07.529Z,99914.69
2022-12-25T19:56:35.315Z,99906.66
2022-12-25T19:59:01.897Z,99901.56
2022-12-25T20:01:29.490Z,99907.94
2022-12-25T20:03:56.873Z,99892.50
2022-12-25T20:06:26.196Z,99892.31
2022-12-25T20:08:54.830Z,99890.84
2022-12-25T20:11:23.073Z,99889.44
2022-12-25T20:13:51.385Z,99888.22
2022-12-25T20:16:17.880Z,99895.66
2022-12-25T20:18:44.582Z,99890.72
2022-12-25T20:21:13.341Z,99902.47
2022-12-25T20:23:40.103Z,99905.84
2022-12-25T20:26:06.808Z,99887.13
2022-12-25T20:28:36.047Z,99892.28
2022-12-25T20:31:07.121Z,99876.94
2022-12-25T20:33:34.349Z,99876.06
2022-12-25T20:36:02.221Z,99876.88
2022-12-25T20:38:28.710Z,99877.16
2022-12-25T20:41:25.674Z,99883.97
2022-12-25T20:43:45.894Z,99879.41
2022-12-25T20:46:14.309Z,99898.56
2022-12-25T20:48:40.794Z,99883.09
2022-12-25T20:51:08.880Z,99886.75
2022-12-25T20:53:35.593Z,99881.81
2022-12-25T20:56:02.532Z,99880.56
2022-12-25T20:58:29.003Z,99878.09
2022-12-25T21:00:56.056Z,99890.72
2022-12-25T21:03:24.610Z,99881.56
2022-12-25T21:05:51.848Z,99888.72
2022-12-25T21:08:19.116Z,99892.13
2022-12-25T21:10:46.089Z,99886.31
2022-12-25T21:13:12.517Z,99899.09
2022-12-25T21:15:43.395Z,99892.25
2022-12-25T21:18:09.884Z,99895.91
2022-12-25T21:20:37.708Z,99904.91
2022-12-25T21:23:04.192Z,99897.84
2022-12-25T21:25:30.696Z,99896.06
2022-12-25T21:27:57.091Z,99897.94
2022-12-25T21:30:23.480Z,99901.34
2022-12-25T21:32:50.837Z,99906.50
2022-12-25T21:35:17.309Z,99914.16
2022-12-25T21:37:45.078Z,99916.59
2022-12-25T21:40:16.350Z,99916.34
2022-12-25T21:42:43.103Z,99917.03
2022-12-25T21:45:09.895Z,99928.91
2022-12-25T21:48:02.498Z,99913.63
2022-12-25T21:50:22.797Z,99912.38
2022-12-25T21:52:50.563Z,99921.47
2022-12-25T21:55:17.001Z,99927.66
2022-12-25T21:57:43.446Z,99924.81
2022-12-25T22:00:12.241Z,99927.34
2022-12-25T22:02:38.687Z,99931.06
2022-12-25T22:05:06.154Z,99928.59
2022-12-25T22:07:32.601Z,99928.00
2022-12-25T22:10:00.415Z,99936.13
2022-12-25T22:12:33.513Z,99930.41
2022-12-25T22:15:01.367Z,99941.66
2022-12-25T22:17:29.613Z,99945.22
2022-12-25T22:19:56.676Z,99935.25
2022-12-25T22:22:25.212Z,99933.38
2022-12-25T22:24:53.591Z,99941.06
2022-12-25T22:27:22.033Z,99950.97
2022-12-25T22:29:48.802Z,99954.31
2022-12-25T22:32:16.356Z,99957.56
2022-12-25T22:34:43.060Z,99964.19
2022-12-25T22:37:13.835Z,99964.03
2022-12-25T22:39:40.285Z,99962.50
2022-12-25T22:42:06.901Z,99963.09
2022-12-25T22:44:34.989Z,99959.31
2022-12-25T22:47:01.550Z,99965.19
2022-12-25T22:49:29.245Z,99975.50
2022-12-25T22:51:56.023Z,99954.75
2022-12-25T22:54:23.844Z,99983.88
2022-12-25T22:56:52.223Z,99978.03
2022-12-25T22:59:21.192Z,99980.78
2022-12-25T23:01:49.816Z,99974.03
2022-12-25T23:04:16.414Z,99978.94
2022-12-25T23:06:42.903Z,99979.06
2022-12-25T23:09:13.825Z,99989.16
2022-12-25T23:11:42.889Z,99991.72
2022-12-25T23:14:11.599Z,99989.03
2022-12-25T23:16:38.040Z,99990.69
2022-12-25T23:19:06.148Z,99994.13
2022-12-25T23:21:32.611Z,99986.00
2022-12-25T23:23:59.258Z,99989.13
2022-12-25T23:26:25.672Z,99994.00
2022-12-25T23:28:52.071Z,100013.84
2022-12-25T23:31:22.307Z,100001.19
2022-12-25T23:33:48.923Z,100007.66
2022-12-25T23:36:16.725Z,99993.03
2022-12-25T23:38:43.272Z,99985.56
2022-12-25T23:41:09.714Z,99984.16
2022-12-25T23:43:36.150Z,99976.56
2022-12-25T23:46:02.667Z,99976.25
2022-12-25T23:48:29.250Z,99980.38
2022-12-25T23:50:55.908Z,99981.41
2022-12-25T23:53:23.697Z,99973.41
2022-12-25T23:55:55.320Z,99974.47
2022-12-25T23:58:22.370Z,99967.22
